Time;durP1;ratioP1;P1;durP2;ratioP2;P2;SDS_P1;SDS_P2;PMS_P1;PMS_P2;Temp;Humidity;BMP_temperature;BMP_pressure;BME280_temperature;BME280_humidity;BME280_pressure;Samples;Min_cycle;Max_cycle;Signal;HPM_P1;HPM_P2
2022/01/08 00:00:29;;;;;;;29.83;15.67;;;;;;;6.66;100.00;99627.28;4899863;29;20466;-85
2022/01/08 00:02:54;;;;;;;26.33;14.33;;;;;;;6.65;100.00;99625.56;4900328;29;20167;-84
2022/01/08 00:05:20;;;;;;;28.03;13.37;;;;;;;6.69;100.00;99619.94;4900273;29;20434;-85
2022/01/08 00:07:50;;;;;;;25.17;12.90;;;;;;;6.74;100.00;99621.09;4901907;29;20227;-83
2022/01/08 00:10:16;;;;;;;26.50;13.47;;;;;;;5.08;100.00;99335.00;4901440;29;20206;-86
2022/01/08 00:12:42;;;;;;;24.67;12.40;;;;;;;6.70;100.00;99619.16;4900389;29;20854;-84
2022/01/08 00:15:08;;;;;;;26.90;13.10;;;;;;;6.22;100.00;99560.00;4901991;29;20656;-86
2022/01/08 00:17:36;;;;;;;27.97;13.40;;;;;;;6.67;100.00;99621.50;4902063;29;20265;-83
2022/01/08 00:20:04;;;;;;;25.83;13.77;;;;;;;6.79;100.00;99620.59;4884395;29;20442;-85
2022/01/08 00:22:29;;;;;;;23.33;12.90;;;;;;;4.40;100.00;99225.25;4900499;29;20959;-85
2022/01/08 00:24:56;;;;;;;26.23;13.17;;;;;;;6.87;100.00;99633.63;4899268;29;20171;-87
2022/01/08 00:27:24;;;;;;;28.67;13.53;;;;;;;6.41;100.00;99572.06;4898989;29;20191;-85
2022/01/08 00:29:49;;;;;;;27.20;13.70;;;;;;;6.36;100.00;99525.66;4908612;29;20432;-84
2022/01/08 00:32:15;;;;;;;26.87;13.67;;;;;;;5.84;100.00;99446.13;4968485;29;20463;-83
2022/01/08 00:34:42;;;;;;;27.17;14.00;;;;;;;6.33;100.00;99548.97;4964754;29;20161;-84
2022/01/08 00:37:08;;;;;;;28.10;13.67;;;;;;;6.66;100.00;99609.69;4958021;29;20539;-84
2022/01/08 00:39:36;;;;;;;26.53;13.93;;;;;;;6.53;100.00;99598.88;4940327;29;20408;-83
2022/01/08 00:42:02;;;;;;;28.80;14.03;;;;;;;5.69;100.00;99437.63;4956119;29;20213;-83
2022/01/08 00:44:28;;;;;;;26.33;13.27;;;;;;;5.62;100.00;99425.47;4933971;29;20470;-84
2022/01/08 00:46:54;;;;;;;28.93;14.13;;;;;;;4.13;100.00;99175.13;4951859;29;20560;-84
2022/01/08 00:49:20;;;;;;;28.43;13.50;;;;;;;6.72;100.00;99605.03;4952387;29;20253;-83
2022/01/08 00:51:46;;;;;;;26.70;13.50;;;;;;;4.99;100.00;99297.66;4957977;28;20177;-83
2022/01/08 00:54:11;;;;;;;26.47;13.73;;;;;;;4.84;100.00;99309.22;4942812;29;20936;-83
2022/01/08 00:56:36;;;;;;;29.40;14.07;;;;;;;4.05;100.00;99166.25;4943628;29;20169;-86
2022/01/08 00:59:04;;;;;;;28.03;13.87;;;;;;;4.91;100.00;99298.81;4943610;29;20166;-84
2022/01/08 01:01:30;;;;;;;27.87;13.70;;;;;;;6.59;100.00;99584.94;4943930;29;20195;-86
2022/01/08 01:03:55;;;;;;;25.43;13.53;;;;;;;6.19;100.00;99524.63;4942765;29;20436;-85
2022/01/08 01:06:22;;;;;;;28.43;13.97;;;;;;;5.28;100.00;99382.28;4943721;29;20204;-84
2022/01/08 01:08:48;;;;;;;30.57;14.70;;;;;;;6.43;100.00;99586.47;4959227;29;20618;-85
2022/01/08 01:11:14;;;;;;;30.53;14.10;;;;;;;6.13;100.00;99529.25;4944741;29;20428;-85
2022/01/08 01:13:39;;;;;;;29.93;14.43;;;;;;;6.17;100.00;99521.16;4965477;29;20188;-84
2022/01/08 01:16:05;;;;;;;31.70;15.37;;;;;;;6.30;100.00;99530.31;4947044;29;20180;-86
2022/01/08 01:18:35;;;;;;;35.80;16.47;;;;;;;6.22;100.00;99560.00;4961028;29;20189;-85
2022/01/08 01:21:01;;;;;;;43.10;20.47;;;;;;;5.37;100.00;99415.53;4946379;29;20485;-83
2022/01/08 01:23:34;;;;;;;39.13;19.00;;;;;;;6.29;100.00;99562.13;4945897;29;20463;-85
2022/01/08 01:26:03;;;;;;;41.03;19.53;;;;;;;5.87;100.00;99474.00;4929172;29;20440;-84
2022/01/08 01:47:13;;;;;;;34.67;16.27;;;;;;;4.63;100.00;99225.13;4948154;29;20180;-84
2022/01/08 01:49:46;;;;;;;37.50;16.67;;;;;;;6.39;100.00;99521.72;4943224;29;20420;-85
2022/01/08 01:52:16;;;;;;;35.70;16.47;;;;;;;6.32;100.00;99517.06;4942696;29;20165;-85
2022/01/08 01:54:42;;;;;;;34.23;15.67;;;;;;;5.90;100.00;99459.13;4942906;29;20424;-84
2022/01/08 01:57:10;;;;;;;36.70;16.33;;;;;;;5.33;100.00;99351.69;4942596;29;20416;-86
2022/01/08 01:59:37;;;;;;;36.50;16.10;;;;;;;5.97;100.00;99453.69;4942141;29;20946;-84
2022/01/08 02:02:05;;;;;;;35.20;16.43;;;;;;;6.33;100.00;99528.88;4939429;29;20476;-85
2022/01/08 02:04:31;;;;;;;38.37;17.97;;;;;;;5.04;100.00;99302.97;4939305;29;20415;-84
2022/01/08 02:06:56;;;;;;;36.33;17.13;;;;;;;6.28;100.00;99515.16;4937545;29;20524;-85
2022/01/08 02:09:22;;;;;;;36.50;17.07;;;;;;;4.51;100.00;99209.28;4941212;29;20188;-85
2022/01/08 02:12:03;;;;;;;36.67;17.30;;;;;;;6.43;100.00;99506.00;4940969;29;20209;-85
2022/01/08 02:14:33;;;;;;;37.40;17.27;;;;;;;6.41;100.00;99497.53;4954424;29;20177;-88
2022/01/08 02:17:00;;;;;;;36.77;18.03;;;;;;;6.16;100.00;99449.03;4939221;29;20425;-86
2022/01/08 02:19:26;;;;;;;39.50;18.30;;;;;;;5.80;100.00;99391.44;4956276;29;20417;-86
2022/01/08 02:21:57;;;;;;;38.20;17.17;;;;;;;4.99;100.00;99262.56;4942147;29;20589;-86
2022/01/08 02:24:24;;;;;;;38.17;17.27;;;;;;;5.88;100.00;99415.44;4941654;29;20416;-87
2022/01/08 02:26:51;;;;;;;35.80;16.70;;;;;;;6.32;100.00;99461.75;4938067;29;20429;-87
2022/01/08 02:29:18;;;;;;;37.87;16.90;;;;;;;6.45;100.00;99501.09;4939539;29;20409;-83
2022/01/08 02:32:09;;;;;;;35.87;16.83;;;;;;;5.51;100.00;99341.06;4939223;29;20437;-84
2022/01/08 02:34:40;;;;;;;39.00;17.63;;;;;;;5.77;100.00;99388.75;4939622;29;20845;-84
2022/01/08 02:37:07;;;;;;;40.60;18.30;;;;;;;6.30;100.00;99475.88;4940709;29;20408;-86
2022/01/08 02:39:41;;;;;;;37.50;17.30;;;;;;;4.71;100.00;99202.28;4938979;29;20413;-85
2022/01/08 02:42:14;;;;;;;43.10;19.70;;;;;;;4.89;100.00;99225.09;4940971;29;20452;-84
2022/01/08 02:44:45;;;;;;;43.87;19.37;;;;;;;6.24;100.00;99472.97;4938706;29;20432;-86
2022/01/08 02:47:18;;;;;;;40.30;17.63;;;;;;;6.30;100.00;99470.84;4941720;29;20443;-85
2022/01/08 02:49:44;;;;;;;38.80;17.53;;;;;;;6.21;100.00;99469.41;4942725;29;20438;-83
2022/01/08 02:52:12;;;;;;;45.20;20.93;;;;;;;6.05;100.00;99450.00;4957213;29;20782;-85
2022/01/08 02:54:37;;;;;;;53.50;24.87;;;;;;;5.57;100.00;99347.34;4957723;29;20161;-85
2022/01/08 02:57:04;;;;;;;45.50;20.00;;;;;;;5.76;100.00;99385.41;4941815;29;20530;-85
2022/01/08 02:59:33;;;;;;;49.17;21.37;;;;;;;5.48;100.00;99324.19;4961304;29;20184;-83
2022/01/08 03:01:59;;;;;;;80.83;32.77;;;;;;;5.16;100.00;99266.13;4941017;29;20467;-86
2022/01/08 03:04:30;;;;;;;35.83;15.43;;;;;;;6.21;100.00;99449.28;4939807;29;21023;-84
2022/01/08 03:06:56;;;;;;;45.67;20.17;;;;;;;5.79;100.00;99385.59;4959968;29;20173;-85
2022/01/08 03:09:22;;;;;;;49.73;23.90;;;;;;;6.25;100.00;99464.69;4955878;29;20443;-84
2022/01/08 03:11:47;;;;;;;43.07;19.67;;;;;;;4.71;100.00;99194.75;4957024;29;20392;-86
2022/01/08 03:14:14;;;;;;;46.30;20.23;;;;;;;6.31;100.00;99452.50;4955147;28;20544;-86
2022/01/08 03:16:39;;;;;;;38.00;16.90;;;;;;;6.39;100.00;99456.34;4924369;29;20255;-86
2022/01/08 03:19:10;;;;;;;40.00;18.10;;;;;;;6.29;100.00;99455.69;4939550;29;20439;-84
2022/01/08 03:21:39;;;;;;;38.80;17.90;;;;;;;3.45;100.00;99022.09;4955936;29;20285;-85
2022/01/08 03:24:09;;;;;;;43.80;18.80;;;;;;;6.20;100.00;99453.47;4955803;29;20416;-86
2022/01/08 03:26:35;;;;;;;39.47;17.20;;;;;;;5.35;100.00;99310.03;4956063;29;20412;-84
2022/01/08 03:29:01;;;;;;;38.10;16.63;;;;;;;5.94;100.00;99394.06;4956758;29;20423;-83
2022/01/08 03:31:29;;;;;;;36.17;16.27;;;;;;;6.21;100.00;99441.75;4939154;29;20435;-85
2022/01/08 03:33:54;;;;;;;39.27;16.37;;;;;;;5.18;100.00;99259.53;4939767;29;20192;-86
2022/01/08 03:36:21;;;;;;;37.90;16.37;;;;;;;6.34;100.00;99449.28;4956092;29;20428;-84
2022/01/08 03:38:48;;;;;;;38.77;16.90;;;;;;;5.90;100.00;99378.75;4956554;29;20625;-84
2022/01/08 03:41:14;;;;;;;38.27;17.13;;;;;;;4.62;100.00;99170.72;4956373;29;20851;-85
2022/01/08 03:43:41;;;;;;;34.70;16.07;;;;;;;6.32;100.00;99484.38;4938898;29;20429;-84
2022/01/08 03:46:10;;;;;;;36.20;16.27;;;;;;;5.84;100.00;99359.09;4956055;29;20229;-85
2022/01/08 03:48:47;;;;;;;34.80;15.77;;;;;;;5.57;100.00;99276.19;4938956;29;21107;-86
2022/01/08 03:51:14;;;;;;;33.90;16.73;;;;;;;5.61;100.00;99308.22;4954700;29;20420;-84
2022/01/08 03:53:40;;;;;;;38.07;16.30;;;;;;;6.09;100.00;99395.78;4956219;29;20415;-85
2022/01/08 03:56:06;;;;;;;36.23;15.83;;;;;;;6.36;100.00;99442.69;4956033;29;20436;-86
2022/01/08 03:58:32;;;;;;;32.57;15.10;;;;;;;6.35;100.00;99474.50;4956395;29;20451;-86
2022/01/08 04:00:58;;;;;;;32.57;15.03;;;;;;;3.76;100.00;99008.31;4957471;29;20767;-84
2022/01/08 04:03:23;;;;;;;34.17;15.60;;;;;;;6.39;100.00;99450.44;4973525;29;20192;-82
2022/01/08 04:05:51;;;;;;;35.37;16.50;;;;;;;6.31;100.00;99419.81;4971712;29;20195;-86
2022/01/08 04:08:18;;;;;;;36.20;16.13;;;;;;;6.38;100.00;99431.09;4971099;29;20248;-83
2022/01/08 04:10:43;;;;;;;38.20;17.23;;;;;;;5.09;100.00;99211.28;4968025;29;20405;-85
2022/01/08 04:13:15;;;;;;;37.60;17.37;;;;;;;6.44;100.00;99427.31;4961396;29;20423;-85
2022/01/08 04:16:10;;;;;;;36.83;16.97;;;;;;;5.76;100.00;99310.03;4957390;29;20188;-83
2022/01/08 04:18:36;;;;;;;36.57;16.50;;;;;;;5.40;100.00;99244.16;4938159;29;20460;-85
2022/01/08 04:23:34;;;;;;;34.63;15.87;;;;;;;4.75;100.00;99146.50;4958351;29;20176;-84
2022/01/08 04:26:02;;;;;;;35.33;16.20;;;;;;;4.95;100.00;99207.06;4955304;28;20506;-85
2022/01/08 04:28:29;;;;;;;35.83;16.87;;;;;;;6.45;100.00;99434.09;4938862;29;20436;-84
2022/01/08 04:30:56;;;;;;;39.37;16.97;;;;;;;5.79;100.00;99330.31;4953371;29;20429;-85
2022/01/08 04:33:22;;;;;;;34.30;16.70;;;;;;;4.31;100.00;99079.38;4953539;29;20964;-83
2022/01/08 04:35:48;;;;;;;44.93;19.60;;;;;;;6.50;100.00;99435.22;4953866;29;20446;-85
2022/01/08 04:38:14;;;;;;;45.97;21.90;;;;;;;6.20;100.00;99390.66;4955247;29;20511;-85
2022/01/08 04:40:40;;;;;;;45.37;21.77;;;;;;;5.92;100.00;99321.91;4938755;29;20219;-86
2022/01/08 04:43:06;;;;;;;42.20;20.27;;;;;;;6.25;100.00;99379.22;4953824;29;20448;-86
2022/01/08 04:45:34;;;;;;;39.23;17.27;;;;;;;6.51;100.00;99433.56;4937282;29;20480;-85
2022/01/08 04:48:21;;;;;;;37.93;19.10;;;;;;;4.04;100.00;99015.88;4938199;29;20203;-87
2022/01/08 04:50:47;;;;;;;38.47;18.17;;;;;;;6.15;100.00;99371.91;4918266;29;20500;-85
2022/01/08 04:53:12;;;;;;;46.03;21.47;;;;;;;6.56;100.00;99446.41;4934586;29;20429;-85
2022/01/08 04:55:38;;;;;;;65.17;31.03;;;;;;;6.61;100.00;99429.94;4933674;29;20286;-85
2022/01/08 04:58:05;;;;;;;55.03;25.60;;;;;;;5.22;100.00;99199.59;4936260;29;20193;-87
2022/01/08 05:00:32;;;;;;;54.20;25.03;;;;;;;6.17;100.00;99352.75;4919796;29;20457;-85
2022/01/08 05:03:00;;;;;;;46.43;20.97;;;;;;;5.71;100.00;99261.16;4933967;29;20475;-87
2022/01/08 05:05:26;;;;;;;38.57;18.03;;;;;;;6.57;100.00;99423.00;4865169;29;20564;-85
2022/01/08 05:07:52;;;;;;;43.43;20.97;;;;;;;5.62;100.00;99248.06;4896450;29;20902;-85
2022/01/08 05:10:19;;;;;;;41.83;20.10;;;;;;;4.93;100.00;99149.28;4880379;29;20190;-84
2022/01/08 05:12:45;;;;;;;39.30;19.27;;;;;;;6.56;100.00;99409.56;4895489;29;20426;-84
2022/01/08 05:15:15;;;;;;;39.43;18.97;;;;;;;6.38;100.00;99409.34;4895568;29;20438;-84
2022/01/08 05:17:42;;;;;;;42.73;19.97;;;;;;;4.24;100.00;99052.19;4880456;29;20190;-85
2022/01/08 05:20:11;;;;;;;49.20;22.67;;;;;;;5.63;100.00;99282.44;4896218;29;20417;-86
2022/01/08 05:25:13;;;;;;;52.97;23.60;;;;;;;6.25;100.00;99393.41;4895798;29;20449;-85
2022/01/08 05:27:39;;;;;;;60.00;28.00;;;;;;;6.14;100.00;99355.09;4901560;29;20427;-85
2022/01/08 05:30:06;;;;;;;51.10;24.93;;;;;;;6.49;100.00;99404.94;4914065;29;20436;-84
2022/01/08 05:32:32;;;;;;;46.90;21.53;;;;;;;5.89;100.00;99294.09;4914839;29;20208;-85
2022/01/08 05:34:59;;;;;;;38.57;18.17;;;;;;;6.52;100.00;99406.00;4915047;29;20410;-85
2022/01/08 05:37:24;;;;;;;48.90;24.07;;;;;;;6.58;100.00;99397.94;4900885;29;20182;-85
2022/01/08 05:39:51;;;;;;;56.50;24.70;;;;;;;3.96;100.00;98974.47;4918127;29;20513;-85
2022/01/08 05:42:18;;;;;;;47.80;21.70;;;;;;;5.01;100.00;99150.63;4918652;29;20273;-85
2022/01/08 05:44:43;;;;;;;58.97;27.27;;;;;;;5.76;100.00;99274.00;4918592;29;20424;-86
2022/01/08 05:47:09;;;;;;;68.23;31.47;;;;;;;6.45;100.00;99408.94;4918163;29;20481;-85
2022/01/08 05:49:35;;;;;;;79.33;35.23;;;;;;;6.16;100.00;99366.09;4902549;29;20190;-85
2022/01/08 05:52:01;;;;;;;62.87;28.17;;;;;;;6.44;100.00;99412.22;4902383;29;20649;-85
2022/01/08 05:54:26;;;;;;;87.33;37.30;;;;;;;5.59;100.00;99264.59;4919986;29;20584;-85
2022/01/08 05:56:52;;;;;;;84.10;35.90;;;;;;;6.24;100.00;99412.66;4957739;29;20203;-86
2022/01/08 05:59:18;;;;;;;71.93;33.33;;;;;;;4.92;100.00;99191.81;4957996;29;20195;-85
2022/01/08 06:01:45;;;;;;;78.90;37.03;;;;;;;6.06;100.00;99371.34;4941108;29;20200;-85
2022/01/08 06:04:10;;;;;;;113.10;60.87;;;;;;;5.21;100.00;99230.50;4958310;29;20420;-85
2022/01/08 06:06:39;;;;;;;60.77;28.67;;;;;;;5.98;100.00;99352.44;4956849;29;20455;-85
2022/01/08 06:09:07;;;;;;;50.90;22.23;;;;;;;6.32;100.00;99426.56;4958655;29;20552;-85
2022/01/08 06:11:33;;;;;;;52.87;23.47;;;;;;;6.35;100.00;99416.69;4958510;29;20447;-84
2022/01/08 06:14:01;;;;;;;49.20;23.43;;;;;;;5.80;100.00;99411.53;4960830;29;20479;-83
2022/01/08 06:16:32;;;;;;;58.20;25.53;;;;;;;5.93;100.00;99389.81;4958956;29;20396;-86
2022/01/08 06:18:58;;;;;;;50.30;20.80;;;;;;;5.21;100.00;99315.81;4957471;29;20507;-83
2022/01/08 06:21:23;;;;;;;47.43;19.30;;;;;;;3.78;100.00;99065.94;4956967;29;21023;-83
2022/01/08 06:23:49;;;;;;;84.43;34.17;;;;;;;5.13;100.00;99291.88;4966140;29;20180;-85
2022/01/08 06:26:14;;;;;;;216.37;66.20;;;;;;;3.32;100.00;98984.56;4971565;29;20227;-85
2022/01/08 06:28:40;;;;;;;228.97;54.33;;;;;;;4.95;100.00;99219.59;4963074;29;20172;-83
2022/01/08 06:31:05;;;;;;;138.70;43.23;;;;;;;5.21;100.00;99277.31;4957194;29;20546;-84
2022/01/08 06:33:31;;;;;;;111.17;33.93;;;;;;;6.10;100.00;99410.94;4956398;29;20548;-86
2022/01/08 06:35:58;;;;;;;57.40;23.03;;;;;;;4.33;100.00;99106.25;4957757;29;20279;-85
2022/01/08 06:38:23;;;;;;;51.73;22.20;;;;;;;6.26;100.00;99420.31;4956816;29;20564;-86
2022/01/08 06:40:48;;;;;;;54.47;23.63;;;;;;;6.21;100.00;99417.50;4942117;29;20471;-85
2022/01/08 06:43:15;;;;;;;50.13;21.30;;;;;;;4.84;100.00;99181.31;4971291;29;20192;-84
2022/01/08 06:45:41;;;;;;;53.50;22.27;;;;;;;6.16;100.00;99403.78;4963260;29;20220;-86
2022/01/08 06:48:08;;;;;;;61.37;26.30;;;;;;;6.00;100.00;99365.06;4958528;28;20466;-83
2022/01/08 06:50:34;;;;;;;50.13;22.60;;;;;;;6.34;100.00;99414.09;4943579;29;21000;-84
2022/01/08 06:52:59;;;;;;;51.50;22.43;;;;;;;6.39;100.00;99411.09;4941563;29;20452;-84
2022/01/08 06:55:26;;;;;;;55.77;22.00;;;;;;;6.49;100.00;99403.28;4940720;29;20188;-85
2022/01/08 06:57:53;;;;;;;54.13;22.30;;;;;;;6.29;100.00;99392.84;4940934;29;20216;-86
2022/01/08 07:00:19;;;;;;;56.50;23.73;;;;;;;4.90;100.00;99138.19;4958017;29;20870;-85
2022/01/08 07:02:44;;;;;;;63.13;28.60;;;;;;;6.01;100.00;99341.69;4958484;29;20412;-85
2022/01/08 07:05:10;;;;;;;68.20;29.33;;;;;;;5.88;100.00;99355.13;4960193;29;20714;-84
2022/01/08 07:07:35;;;;;;;57.90;24.30;;;;;;;5.90;100.00;99338.53;4961837;29;20620;-84
2022/01/08 07:10:04;;;;;;;67.80;27.97;;;;;;;4.53;100.00;99088.31;4960132;29;20265;-85
2022/01/08 07:12:30;;;;;;;58.77;24.00;;;;;;;3.79;100.00;98997.63;4902205;29;20253;-85
2022/01/08 07:14:56;;;;;;;58.40;23.83;;;;;;;4.61;100.00;99106.34;4917389;29;20442;-86
2022/01/08 07:17:21;;;;;;;55.83;24.50;;;;;;;4.79;100.00;99142.56;4920042;29;20505;-83
2022/01/08 07:19:47;;;;;;;54.53;23.83;;;;;;;4.33;100.00;99062.78;4917783;29;20650;-85
2022/01/08 07:22:12;;;;;;;59.50;24.97;;;;;;;5.47;100.00;99219.50;4917915;29;20232;-85
2022/01/08 07:24:37;;;;;;;61.13;27.23;;;;;;;5.55;100.00;99232.56;4917761;29;20230;-86
2022/01/08 07:27:03;;;;;;;207.53;97.23;;;;;;;6.74;100.00;99412.28;4917567;29;20197;-84
2022/01/08 07:29:29;;;;;;;80.90;34.03;;;;;;;5.36;100.00;99177.84;4891551;29;20190;-87
2022/01/08 07:31:55;;;;;;;73.17;30.67;;;;;;;3.76;100.00;98905.69;4922309;29;20190;-85
2022/01/08 07:34:21;;;;;;;52.87;24.47;;;;;;;5.36;100.00;99170.31;4902898;29;20624;-85
2022/01/08 07:36:46;;;;;;;48.90;21.83;;;;;;;5.18;100.00;99180.13;4919053;29;20434;-86
2022/01/08 07:39:12;;;;;;;46.23;20.73;;;;;;;6.40;100.00;99397.72;4901282;29;20285;-85
2022/01/08 07:41:38;;;;;;;46.70;20.63;;;;;;;6.58;100.00;99409.66;4917019;29;20257;-84
2022/01/08 07:44:04;;;;;;;43.90;17.43;;;;;;;6.45;100.00;99401.41;4948056;29;20223;-86
2022/01/08 07:46:29;;;;;;;44.70;19.60;;;;;;;6.12;100.00;99338.19;4958490;29;20543;-85
2022/01/08 07:48:56;;;;;;;47.37;20.80;;;;;;;6.25;100.00;99401.84;4958312;29;20205;-87
2022/01/08 07:51:21;;;;;;;50.17;20.17;;;;;;;5.86;100.00;99344.13;4957838;29;20427;-86
2022/01/08 07:53:48;;;;;;;57.40;24.40;;;;;;;5.76;100.00;99329.25;4958958;29;20189;-85
2022/01/08 07:56:13;;;;;;;61.13;27.53;;;;;;;5.46;100.00;99289.72;4940382;29;20515;-86
2022/01/08 07:58:39;;;;;;;73.50;34.60;;;;;;;3.85;100.00;99016.38;4956843;29;20188;-87
2022/01/08 08:01:04;;;;;;;53.83;23.53;;;;;;;6.30;100.00;99402.09;4956957;28;20231;-87
2022/01/08 08:03:30;;;;;;;60.80;25.33;;;;;;;3.97;100.00;98991.25;4958983;29;20294;-87
2022/01/08 08:05:56;;;;;;;63.50;27.37;;;;;;;6.56;100.00;99391.09;4959538;29;20238;-85
2022/01/08 08:08:21;;;;;;;69.70;28.87;;;;;;;5.11;100.00;99125.31;4955664;29;20444;-86
2022/01/08 08:10:50;;;;;;;83.80;36.87;;;;;;;5.29;100.00;99168.22;4949941;28;20188;-88
2022/01/08 08:13:18;;;;;;;70.70;30.67;;;;;;;5.08;100.00;99170.28;4948570;29;20177;-86
2022/01/08 08:15:44;;;;;;;74.00;30.83;;;;;;;6.02;100.00;99371.06;4959367;29;20420;-85
2022/01/08 08:18:11;;;;;;;78.60;31.07;;;;;;;3.03;100.00;98897.66;4939299;29;20494;-86
2022/01/08 08:20:38;;;;;;;89.60;37.03;;;;;;;6.01;100.00;99396.97;4957536;29;20192;-86
2022/01/08 08:23:04;;;;;;;80.07;34.70;;;;;;;5.70;100.00;99279.53;4956729;29;20920;-85
2022/01/08 08:25:29;;;;;;;105.63;45.47;;;;;;;5.00;100.00;99133.84;4955330;29;20432;-88
2022/01/08 08:27:55;;;;;;;105.20;42.37;;;;;;;6.06;100.00;99315.19;4956059;29;20661;-85
2022/01/08 08:30:23;;;;;;;74.87;31.93;;;;;;;4.82;100.00;99142.75;4955664;29;20572;-86
2022/01/08 08:32:48;;;;;;;158.27;61.03;;;;;;;6.07;100.00;99321.97;4932561;29;20429;-86
2022/01/08 08:35:14;;;;;;;200.13;68.00;;;;;;;6.51;100.00;99384.13;4919776;29;20433;-87
2022/01/08 08:37:40;;;;;;;189.07;60.27;;;;;;;6.21;100.00;99382.31;4919449;29;20174;-87
2022/01/08 08:40:08;;;;;;;330.23;102.87;;;;;;;6.29;100.00;99345.09;4935838;29;20188;-84
2022/01/08 08:42:34;;;;;;;164.73;55.43;;;;;;;6.09;100.00;99327.94;4940542;29;20464;-82
2022/01/08 08:45:02;;;;;;;461.90;137.80;;;;;;;4.90;100.00;99116.50;4971534;29;20416;-86
2022/01/08 08:47:28;;;;;;;348.50;103.33;;;;;;;4.86;100.00;99073.59;4940640;29;20191;-84
2022/01/08 08:49:54;;;;;;;241.33;92.07;;;;;;;5.45;100.00;99155.81;4956895;29;20428;-83
2022/01/08 08:52:21;;;;;;;130.00;56.20;;;;;;;6.58;100.00;99304.91;4952791;29;20188;-87
2022/01/08 08:54:46;;;;;;;121.97;48.80;;;;;;;7.01;100.00;99369.44;4936930;29;20438;-84
2022/01/08 08:57:12;;;;;;;113.73;50.07;;;;;;;5.58;100.00;99095.50;4919165;29;20528;-85
2022/01/08 08:59:39;;;;;;;51.53;24.77;;;;;;;6.95;100.00;99315.41;4936291;29;20650;-85
2022/01/08 09:02:04;;;;;;;53.90;26.00;;;;;;;6.74;100.00;99299.94;4919189;29;20267;-86
2022/01/08 09:04:30;;;;;;;48.87;23.30;;;;;;;6.48;100.00;99244.81;4936469;29;20600;-86
2022/01/08 09:06:57;;;;;;;123.43;55.97;;;;;;;5.23;100.00;99022.31;4935490;29;20264;-83
2022/01/08 09:09:24;;;;;;;122.47;58.43;;;;;;;6.30;100.00;99206.91;4937409;29;20189;-88
2022/01/08 09:11:49;;;;;;;117.17;56.10;;;;;;;5.42;100.00;99056.88;4921212;29;20431;-85
2022/01/08 09:14:15;;;;;;;133.17;62.37;;;;;;;5.06;100.00;98993.75;4923137;29;20436;-85
2022/01/08 09:16:52;;;;;;;110.13;52.13;;;;;;;6.40;100.00;99214.19;4940573;29;20166;-86
2022/01/08 09:19:19;;;;;;;110.30;51.63;;;;;;;6.34;100.00;99196.25;4922357;29;20424;-85
2022/01/08 09:21:45;;;;;;;112.83;49.73;;;;;;;6.74;100.00;99243.75;4956336;29;21007;-87
2022/01/08 09:24:12;;;;;;;98.27;45.37;;;;;;;7.26;100.00;99321.34;4941828;29;20424;-88
2022/01/08 09:26:38;;;;;;;94.00;43.50;;;;;;;6.16;100.00;99126.47;4957488;29;20515;-87
2022/01/08 09:29:03;;;;;;;92.90;44.47;;;;;;;6.96;100.00;99259.25;4945894;29;20584;-83
2022/01/08 09:31:29;;;;;;;75.27;36.63;;;;;;;7.32;100.00;99314.13;4959925;29;20184;-84
2022/01/08 09:33:55;;;;;;;72.93;32.73;;;;;;;6.20;100.00;99140.97;4942672;29;20219;-83
2022/01/08 09:36:22;;;;;;;72.87;35.73;;;;;;;6.48;100.00;99161.84;4961551;29;20176;-85
2022/01/08 09:38:48;;;;;;;71.53;34.63;;;;;;;6.71;100.00;99194.13;4959582;29;20222;-82
2022/01/08 09:41:14;;;;;;;73.00;34.07;;;;;;;7.45;100.00;99298.03;4960358;29;20212;-82
2022/01/08 09:43:39;;;;;;;98.47;46.07;;;;;;;6.43;100.00;99098.72;4964799;29;20184;-88
2022/01/08 09:46:05;;;;;;;75.27;35.73;;;;;;;5.65;100.00;98992.16;4966847;29;20235;-89
2022/01/08 09:48:30;;;;;;;69.13;32.47;;;;;;;5.30;100.00;98934.91;4967738;29;20180;-86
2022/01/08 09:50:56;;;;;;;138.37;62.73;;;;;;;5.61;100.00;98949.19;4953335;29;20251;-86
2022/01/08 09:53:21;;;;;;;82.27;38.80;;;;;;;7.07;100.00;99170.09;4969539;29;20164;-88
2022/01/08 09:55:47;;;;;;;57.67;27.70;;;;;;;7.36;100.00;99202.72;4950602;29;20200;-90
2022/01/08 09:58:13;;;;;;;49.17;24.40;;;;;;;7.81;100.00;99268.88;4967158;29;20180;-89
2022/01/08 10:00:39;;;;;;;52.90;27.13;;;;;;;7.73;100.00;99261.81;4950584;29;20204;-89
2022/01/08 10:03:22;;;;;;;66.80;31.43;;;;;;;5.57;100.00;98864.47;4963933;29;20184;-86
2022/01/08 10:05:58;;;;;;;63.87;30.07;;;;;;;7.89;100.00;99244.94;4967063;29;20185;-87
2022/01/08 10:08:29;;;;;;;130.30;68.93;;;;;;;8.07;100.00;99249.28;4932407;29;20207;-87
2022/01/08 10:11:01;;;;;;;65.93;34.70;;;;;;;8.03;100.00;99252.44;4943734;29;20185;-86
2022/01/08 10:13:31;;;;;;;47.87;23.90;;;;;;;8.23;100.00;99245.88;4941073;29;20413;-88
2022/01/08 10:18:43;;;;;;;36.07;17.83;;;;;;;8.49;100.00;99245.53;4945468;29;20212;-87
2022/01/08 10:21:16;;;;;;;38.87;18.87;;;;;;;8.58;100.00;99240.94;4924732;29;20682;-86
2022/01/08 10:23:44;;;;;;;33.93;18.60;;;;;;;8.06;100.00;99189.56;4938978;29;20165;-89
2022/01/08 10:26:15;;;;;;;45.90;22.50;;;;;;;7.67;100.00;99129.59;4940002;29;20174;-85
2022/01/08 10:28:54;;;;;;;34.63;18.87;;;;;;;8.20;100.00;99231.47;4940797;29;20260;-85
2022/01/08 10:31:31;;;;;;;32.80;17.00;;;;;;;8.19;100.00;99229.72;4942546;29;20655;-88
2022/01/08 10:34:04;;;;;;;68.43;35.17;;;;;;;8.19;100.00;99222.16;4922918;29;20185;-86
2022/01/08 10:36:37;;;;;;;27.93;14.60;;;;;;;7.21;100.00;99097.84;4946776;29;20212;-87
2022/01/08 10:39:10;;;;;;;23.20;12.47;;;;;;;7.71;100.00;99222.19;4949908;29;20180;-87
2022/01/08 10:41:55;;;;;;;31.50;17.43;;;;;;;6.95;100.00;99076.38;4930997;29;20201;-87
2022/01/08 10:44:41;;;;;;;22.57;13.20;;;;;;;7.87;100.00;99186.91;4944911;29;20189;-88
2022/01/08 10:47:10;;;;;;;120.87;62.00;;;;;;;5.68;100.00;98813.19;4889265;29;20243;-85
2022/01/08 10:49:45;;;;;;;38.50;22.67;;;;;;;8.15;100.00;99192.56;4903480;29;20241;-88
2022/01/08 10:52:16;;;;;;;27.00;14.27;;;;;;;6.09;100.00;98843.88;4886941;29;20190;-86
2022/01/08 10:54:44;;;;;;;24.57;12.93;;;;;;;7.65;100.00;99104.34;4901174;29;20197;-88
2022/01/08 10:57:14;;;;;;;23.27;13.17;;;;;;;6.75;100.00;98905.91;4921834;29;20676;-89
2022/01/08 10:59:41;;;;;;;36.53;19.13;;;;;;;6.75;100.00;98903.41;4922003;29;20181;-88
2022/01/08 11:02:12;;;;;;;33.63;17.70;;;;;;;7.49;100.00;98970.91;4923495;29;20606;-88
2022/01/08 11:04:50;;;;;;;23.43;12.90;;;;;;;8.80;100.00;99185.66;4907204;29;20260;-88
2022/01/08 11:07:18;;;;;;;19.97;11.73;;;;;;;5.25;100.00;98600.09;4928101;29;20265;-86
2022/01/08 11:09:46;;;;;;;38.97;19.00;;;;;;;8.38;100.00;99147.44;4923243;29;20182;-89
2022/01/08 11:12:16;;;;;;;41.47;19.70;;;;;;;6.96;100.00;98866.72;4923230;29;20229;-87
2022/01/08 11:14:48;;;;;;;82.10;30.53;;;;;;;8.04;100.00;99089.44;4922384;29;20218;-87
2022/01/08 11:17:18;;;;;;;86.53;37.37;;;;;;;8.58;100.00;99175.34;4924461;29;20204;-87
2022/01/08 11:19:49;;;;;;;27.03;12.63;;;;;;;8.24;100.00;99131.63;4937871;29;20189;-85
2022/01/08 11:22:17;;;;;;;134.13;52.53;;;;;;;6.45;100.00;98845.75;4922829;29;20285;-88
2022/01/08 11:25:15;;;;;;;106.03;43.80;;;;;;;8.48;100.00;99169.78;4923230;29;20189;-88
2022/01/08 11:27:44;;;;;;;113.27;43.07;;;;;;;8.17;100.00;99104.38;4922045;29;20202;-87
2022/01/08 11:30:24;;;;;;;33.50;17.27;;;;;;;7.30;100.00;98950.66;4921984;29;20185;-86
2022/01/08 11:32:53;;;;;;;295.33;106.67;;;;;;;8.56;100.00;99165.97;4906673;29;20596;-86
2022/01/08 11:35:19;;;;;;;67.27;29.87;;;;;;;8.26;100.00;99123.34;4918935;29;20209;-88
2022/01/08 11:37:47;;;;;;;75.53;36.70;;;;;;;8.39;100.00;99164.28;4920109;29;20194;-87
2022/01/08 11:40:16;;;;;;;119.13;57.87;;;;;;;8.05;100.00;99106.28;4905216;29;20563;-88
2022/01/08 11:42:42;;;;;;;47.30;25.77;;;;;;;7.67;100.00;99039.78;4917736;29;20228;-86
2022/01/08 11:45:11;;;;;;;370.43;157.97;;;;;;;8.23;100.00;99139.97;4917337;29;20257;-87